fb tw yt g+
Meteorologia

Imagen Satelital Infraroja

Smiley face

Imagen Satelital Topes Nubosos

Smiley face

Imagen Satelital Visible

Smiley face

METAR

SAAC 262000Z 05005KT CAVOK 29/19 Q1012 =
SAAG 262000Z 07007KT 9999 FEW025 28/20 Q1011 =
SAAJ 262000Z 05016KT 9999 SCT033 28/18 Q1010 =
SAAP 262000Z 36006KT 9999 FEW035TCU SCT200 29/20 Q1011 =
SAAR 262000Z 09007KT CAVOK 28/21 Q1011 =
SAAV 262000Z 36004KT CAVOK 30/20 Q1010 =
SABE 262000Z 11006KT 070V130 9999 FEW042 BKN100 25/20 Q1013 =
SACE 232300Z 05007KT 9999 23/18 Q1015 =
SACO 262000Z 11009KT 9999 FEW030 27/19 Q1011 =
SADF 262000Z VRB04KT 9999 FEW035 SCT100 BKN200 26/18 Q1013 =
SADM 261900Z 07004KT 9999 SCT030 SCT100 25/21 Q1013 =
SADP 262000Z 07005KT 9999 FEW025 BKN100 BKN200 26/19 Q1014 =
SAEZ 262000Z 07009KT 9999 FEW038 BKN100 26/18 Q1013 =
SAME 262000Z 09006KT 9999 SCT040 28/13 Q1009 =
SAMM 262000Z 05012KT 9999 FEW030 FEW035CB 25/12 Q1013 =
SAMR 262000Z 14008KT 9999 SCT035 FEW040CB SCT100 26/12 Q1011 =
SANC 262000Z 02012KT 9999 SCT040TCU 31/19 Q1008 =
SANE 262000Z 00000KT 9999 SCT020 SCT030 25/22 Q1010 =
SANL 262000Z 23004KT 9899 26/21 Q1010 =
SANT 262000Z 07011KT 8000 SCT025 SCT030TCU 26/22 Q1011 =
SANU 262000Z 18005KT 9999 FEW045 31/15 Q1009 =
SAOC 262000Z 05008KT CAVOK 27/17 Q1010 RMK ESTIMATED WIND =
SAOR 262000Z 09005KT 9999 FEW025 SCT200 28/19 Q1010 =
SAOS 262000Z 32006KT 9999 FEW030 29/14 Q1010 =
SAOU 262000Z 14004KT 9999 SCT035 SCT200 29/17 Q1011 =
SARC 262000Z 05010KT 9999 FEW025 SCT035 27/22 Q1010 =
SARE 262000Z 04006KT 9999 BKN035 BKN100 27/23 Q1009 =
SARF 262000Z 05004KT 9999 SCT012 26/23 Q1010 =
SARI 262000Z 00000KT 9999 FEW010 SCT025 OVC100 23/22 Q1014 =
SARL 262000Z 05005KT 9999 FEW025TCU SCT200 31/20 Q1011 =
SARP 262000Z 05005KT 9999 SCT035 OVC200 26/21 Q1012 =
SASA 262000Z 05003KT 9999 -RA BKN010TCU 25/18 Q1012 =
SASJ 262000Z 09006KT 9999 BKN030 30/21 Q1010 =
SATR 262000Z 36005KT 9999 FEW025TCU 29/23 Q1009 =
SAVC 262000Z 20004KT 120V240 9999 FEW012 SCT018 14/13 Q1013 =
SAVE 262000Z 27010KT 9999 FEW030 SCT200 15/07 Q1012 =
SAVT 262000Z 00000KT 9999 FEW040 BKN200 28/12 Q1010 =
SAVV 262000Z 00000KT 9999 SCT030 BKN035 FEW040CB 22/14 Q1010 =
SAVY 262000Z 07010KT 9999 FEW025TCU BKN200 21/15 Q1010 =
SAWC 262000Z 27003KT 9999 FEW030 SCT090 13/05 Q1015 =
SAWE 262000Z 02005KT 9999 SCT025 BKN030 09/07 Q1018 =
SAWG 262000Z 09007KT 9999 SCT009 OVC014 11/08 Q1016 =
SAWH 262000Z 00000KT CAVOK 14/01 Q1014 =
SAWP 262000Z 11007KT 9999 SCT013 SCT018 BKN045 11/08 Q1012 =
SAWU 261800Z 11015KT 9999 BKN020 OVC050 11/09 Q1015 =
SAZA 262000Z 07013KT 9999 SCT040TCU BKN100 24/18 Q1013 =
SAZB 262000Z 02008KT 9999 FEW040TCU FEW050CB BKN200 27/16 Q1012 RMK CB OBS TO W =
SAZG 262000Z 05005KT 9999 BKN048 26/18 Q1009 =
SAZM 262000Z 07015KT 9999 FEW025 FEW030 OVC200 22/19 Q1017 =
SAZN 262000Z 09004KT CAVOK 27/17 Q1010 =
SAZR 262000Z 07011KT 9999 FEW050 29/18 Q1009 =
SAZS 262000Z 29023KT 8000 VCSH FEW024 SCT035 16/06 Q1014 =
SAZT 262000Z 05015KT 9999 FEW025 FEW030TCU 23/17 Q1014 =
SAZY 262000Z 25015KT 9999 BKN040 FEW100 16/06 Q1012 =
SUAA 262000Z 06010KT 9999 BKN021 25/16 Q1015 =
SUCA 261800Z 04010G20KT 9999 FEW013 SCT020 BKN200 27/19 Q1011 =
SUDU 262000Z 05006KT 9999 BKN030 27/17 Q1012 =
SULS 262000Z 07013KT 9999 SCT030 26/16 Q1015 =
SUMU 262000Z 05008KT CAVOK 27/15 Q1015 NOSIG =
SUSO 261900Z 11005KT CAVOK 30/19 Q1010 =

TAF

SABE 261700Z 2618/2718 07010KT 9999 SCT025 FEW040TCU BKN100 TX26/2618Z TN21/2709Z BECMG 2622/2700 08015KT SCT020 SCT100 =
SAZB 261700Z 2618/2718 02015KT 9999 SCT030 FEW035CB BKN100 TX30/2619Z TN17/2709Z BECMG 2619/2621 23020KT 5000 TSRA BKN020 SCT040CB BKN055 BECMG 2701/2704 02010KT =
SANC 261700Z 2618/2718 05015KT 9999 BKN030 FEW040CB TX26/2619Z TN21/2710Z PROB40 TEMPO 2619/2621 18005KT 5000 TS SHRA SCT010 BKN020 FEW040CB PROB40 TEMPO 2709/2712 2000 BR DZ BKN010 =
SAZY 261700Z 2618/2718 25015KT 9999 SCT030 BKN060 TX19/2718Z TN04/2710Z BECMG 2704/2706 27005KT CAVOK BECMG 2711/2713 VRB05KT =
SAVC 261700Z 2618/2718 22005KT 6000 DZBR SCT010 BKN012 OVC050 TX16/2619Z TN11/2711Z PROB40 TEMPO 2619/2623 2000 TSRA SCT010 SCT025CB BKN050 BECMG 2701/2703 4000 BR SCT010 =
SACO 261700Z 2618/2718 36010KT 9999 SCT020 TX31/2618Z TN16/2710Z PROB40 TEMPO 2705/2711 05010KT 5000 SHRA BKN025 FEW040CB =
SARC 261700Z 2618/2718 07005KT 9999 BKN020 BKN090 TX26/2717Z TN21/2710Z BECMG 2623/2701 9999 SCT020 SCT090 =
SAWC 261700Z 2618/2718 34005KT 9999 FEW030 SCT070 TX14/2619Z TN07/2711Z BECMG 2621/2623 2000 RABR SCT030 BKN050 OVC070 =
SAVE 261700Z 2618/2718 VRB05KT 9999 SCT030 SCT090 TX18/2619Z TN06/2711Z BECMG 2620/2622 27010KT =
SAEZ 261700Z 2618/2718 06013KT 9999 SCT020 BKN030 FEW045TCU TX28/2718Z TN20/2709Z BECMG 2622/2701 08007KT 9999 SCT020 PROB40 TEMPO 2706/2710 2000 BR SCT015 BECMG 2710/2712 05013KT 9999 SCT025 BECMG 2714/2716 FEW030 SCT045 =
SARF 261700Z 2618/2718 09010KT 8000 TSRA SCT015 BKN040 FEW050CB OVC100 TX27/2717Z TN20/2710Z BECMG 2620/2623 07005KT 9999 SCT015 SCT025 BKN090 =
SARI 261700Z 2618/2718 05005KT 8000 SHRA SCT030 FEW050CB BKN090 TX26/2717Z TN20/2710Z BECMG 2623/2702 9999 FEW020 SCT090 =
SASJ 261700Z 2618/2718 18005KT 9999 SCT030 FEW040 TX31/2619Z TN19/2710Z PROB40 TEMPO 2700/2705 5000 TS SHRA SCT010 BKN020 FEW040CB TEMPO 2709/2712 VRB03KT 2000 BR SCT008 =
SANL 261700Z 2618/2718 23005KT 9999 BKN035 TX25/2618Z TN20/2710Z PROB40 TEMPO 2709/2712 2000 BR DZ BKN010 FEW040CB =
SAZM 261700Z 2618/2718 05015KT 9999 SCT020 FEW040TCU TX23/2718Z TN17/2710Z PROB40 TEMPO 2622/2701 5000 TSRA SCT025 FEW040CB BECMG 2715/2718 02015KT 9999 SCT020 SCT060 =
SAME 261700Z 2618/2718 14005KT 9999 SCT030 FEW040TCU TX30/2620Z TN18/2710Z BECMG 2621/2623 14010KT 8000 TSRA SCT030 FEW040TCU FEW050CB =
SAZN 261700Z 2618/2718 24010KT 9999 SCT035 SCT100 TX27/2619Z TN15/2710Z BECMG 2715/2717 11010KT =
SAAP 261700Z 2618/2718 05010KT 9999 SCT025 FEW035TCU BKN100 TX30/2718Z TN21/2709Z BECMG 2703/2706 11010KT CAVOK =
SARP 261700Z 2618/2718 07005KT 9999 SCT025 BKN090 TX26/2717Z TN21/2710Z BECMG 2620/2623 9999 FEW020 BKN090 =
SARE 261700Z 2618/2718 07005KT 9999 BKN020 BKN090 TX26/2717Z TN21/2710Z BECMG 2623/2701 9999 SCT020 SCT090 =
SAWG 261700Z 2618/2718 09005KT 5000 DZBR OVC012 TX14/2619Z TN10/2711Z BECMG 2621/2623 14010KT 1000 RABR BKN010 OVC012 =
SAWE 261700Z 2618/2718 20005KT 9000 BR BKN020 OVC050 TX10/2619Z TN03/2711Z BECMG 2623/2701 1000 FG SCT010 =
SAAR 261700Z 2618/2718 05010KT 9999 SCT020 BKN100 TX31/2718Z TN19/2709Z BECMG 2621/2623 09010KT =
SASA 261700Z 2618/2718 05005KT 9999 SCT015 FEW040 TX30/2619Z TN18/2710Z PROB40 TEMPO 2700/2705 5000 TS SHRA SCT010 BKN020 FEW040CB TEMPO 2709/2712 VRB03KT 3000 BR SCT008 =
SANU 261700Z 2618/2718 18010KT 9999 SCT030 FEW050TCU TX32/2620Z TN18/2710Z BECMG 2621/2623 14010KT 8000 TSRA SCT030 FEW040TCU FEW050CB =
SAOU 261700Z 2618/2718 16010KT 8000 TSRA BKN020 FEW030CB TX28/1619Z TN19/2709Z BECMG 2621/2623 14010KT 6000 TSRA SCT020 FEW040TCU FEW050CB =
SAMR 261700Z 2618/2718 14005KT 9999 VCTS SCT040 FEW050CB TX29/2620Z TN18/2710Z BECMG 2621/2623 16010KT 8000 SCT030 SCT040TCU FEW050CB =
SANE 261700Z 2618/2718 05005KT 9999 SCT010 SCT015 TX26/2618Z TN21/2710Z BECMG 2623/2701 18005KT 5000 TS SHRA SCT010 BKN020 FEW040CB TEMPO 2709/2712 1000 BR DZ OVC005 =
SAAV 261700Z 2618/2718 05010KT 9999 SCT025 FEW035TCU BKN100 TX31/2718Z TN21/2709Z BECMG 2703/2706 11010KT CAVOK =
SANR 261700Z 2618/2718 09010KT 5000 BR DZ BKN010 TX26/2619Z TN22/2710Z BECMG 2623/2701 18005KT 5000 TS SHRA SCT010 BKN020 FEW040CB TEMPO 2709/2712 1000 BR DZ OVC005 =
SAVT 261700Z 2618/2718 02010KT 9999 SCT030 BKN070 TX27/2619Z TN15/2711Z BECMG 2619/2621 34010KT SHRA SCT030 OVC070 PROB40 TEMPO 2701/2705 TSRA SCT035CB BECMG 2707/2709 19010KT CAVOK =
SANT 261700Z 2618/2718 18005KT 9999 BKN020 TX29/2619Z TN21/2710Z PROB40 TEMPO 2700/2705 5000 TS SHRA SCT010 BKN020 FEW040CB =
SAWH 261700Z 2618/2718 VRB05KT CAVOK TX14/2619Z TN02/2612Z BECMG 2623/2701 36005KT 2000 BR NSC =
SAVV 261700Z 2618/2718 36005KT 9999 SCT030 OVC090 TX29/2619Z TN19/2711Z PROB40 TEMPO 2621/2702 05015KT -TSRA SCT035CB OVC070 =
SUCA 260515Z 2606/2706 12010KT CAVOK TX28/2618Z TN18/2610Z TEMPO 2606/2610 3000 BR FEW010 BECMG 2611/2615 04016KT 9999 SCT023 BKN200 =
SULS 260515Z 2606/2706 06013KT CAVOK TX26/2618Z TN18/2610Z TEMPO 2606/2610 2000 BR FEW010 PROB40 TEMPO 2608/2610 0800 BCFG SCT006 BECMG 2611/2615 04015KT 9999 SCT020 =
SUAA 261130Z 2612/2712 05010KT CAVOK TX28/2618Z TN18/2710Z BECMG 2612/2616 05013KT 9999 SCT023 =